sensor_id;sensor_type;location;lat;lon;timestamp;temperature;humidity
56172;DHT22;42052;41.634;-0.946;2023-07-30T00:02:21;26.90;69.10
56172;DHT22;42052;41.634;-0.946;2023-07-30T00:04:47;26.90;69.00
56172;DHT22;42052;41.634;-0.946;2023-07-30T00:07:13;26.90;69.00
56172;DHT22;42052;41.634;-0.946;2023-07-30T00:09:40;26.90;69.10
56172;DHT22;42052;41.634;-0.946;2023-07-30T00:12:06;26.90;69.20
56172;DHT22;42052;41.634;-0.946;2023-07-30T00:14:36;26.90;69.00
56172;DHT22;42052;41.634;-0.946;2023-07-30T00:17:02;26.90;68.90
56172;DHT22;42052;41.634;-0.946;2023-07-30T00:19:28;26.90;69.00
56172;DHT22;42052;41.634;-0.946;2023-07-30T00:21:53;26.90;68.90
56172;DHT22;42052;41.634;-0.946;2023-07-30T00:24:19;26.90;68.90
56172;DHT22;42052;41.634;-0.946;2023-07-30T00:26:45;26.90;69.10
56172;DHT22;42052;41.634;-0.946;2023-07-30T00:29:11;26.90;69.00
56172;DHT22;42052;41.634;-0.946;2023-07-30T00:31:36;26.90;69.00
56172;DHT22;42052;41.634;-0.946;2023-07-30T00:34:02;26.90;69.10
56172;DHT22;42052;41.634;-0.946;2023-07-30T00:36:28;26.90;69.10
56172;DHT22;42052;41.634;-0.946;2023-07-30T00:38:54;26.90;69.00
56172;DHT22;42052;41.634;-0.946;2023-07-30T00:41:20;26.80;69.00
56172;DHT22;42052;41.634;-0.946;2023-07-30T00:43:46;26.90;68.90
56172;DHT22;42052;41.634;-0.946;2023-07-30T00:46:12;26.90;69.10
56172;DHT22;42052;41.634;-0.946;2023-07-30T00:48:38;26.90;69.10
56172;DHT22;42052;41.634;-0.946;2023-07-30T00:51:06;26.80;69.10
56172;DHT22;42052;41.634;-0.946;2023-07-30T00:53:32;26.90;69.00
56172;DHT22;42052;41.634;-0.946;2023-07-30T00:55:58;26.80;68.90
56172;DHT22;42052;41.634;-0.946;2023-07-30T00:58:24;26.80;68.80
56172;DHT22;42052;41.634;-0.946;2023-07-30T01:00:53;26.80;68.80
56172;DHT22;42052;41.634;-0.946;2023-07-30T01:03:20;26.90;68.90
56172;DHT22;42052;41.634;-0.946;2023-07-30T01:05:46;26.80;68.90
56172;DHT22;42052;41.634;-0.946;2023-07-30T01:08:12;26.80;68.80
56172;DHT22;42052;41.634;-0.946;2023-07-30T01:10:38;26.80;68.70
56172;DHT22;42052;41.634;-0.946;2023-07-30T01:13:08;26.80;68.70
56172;DHT22;42052;41.634;-0.946;2023-07-30T01:15:35;26.80;68.80
56172;DHT22;42052;41.634;-0.946;2023-07-30T01:18:00;26.80;68.70
56172;DHT22;42052;41.634;-0.946;2023-07-30T01:20:32;26.80;68.80
56172;DHT22;42052;41.634;-0.946;2023-07-30T01:22:59;26.80;68.70
56172;DHT22;42052;41.634;-0.946;2023-07-30T01:25:29;26.80;68.80
56172;DHT22;42052;41.634;-0.946;2023-07-30T01:27:59;26.80;68.70
56172;DHT22;42052;41.634;-0.946;2023-07-30T01:30:29;26.80;68.60
56172;DHT22;42052;41.634;-0.946;2023-07-30T01:32:56;26.80;68.60
56172;DHT22;42052;41.634;-0.946;2023-07-30T01:35:26;26.80;68.50
56172;DHT22;42052;41.634;-0.946;2023-07-30T01:37:52;26.80;68.50
56172;DHT22;42052;41.634;-0.946;2023-07-30T01:40:20;26.80;68.50
56172;DHT22;42052;41.634;-0.946;2023-07-30T01:42:46;26.80;68.30
56172;DHT22;42052;41.634;-0.946;2023-07-30T01:45:12;26.80;68.30
56172;DHT22;42052;41.634;-0.946;2023-07-30T01:47:37;26.80;68.20
56172;DHT22;42052;41.634;-0.946;2023-07-30T01:50:03;26.80;68.10
56172;DHT22;42052;41.634;-0.946;2023-07-30T01:52:29;26.80;68.20
56172;DHT22;42052;41.634;-0.946;2023-07-30T01:54:55;26.80;68.10
56172;DHT22;42052;41.634;-0.946;2023-07-30T01:57:24;26.80;68.00
56172;DHT22;42052;41.634;-0.946;2023-07-30T01:59:49;26.80;67.80
56172;DHT22;42052;41.634;-0.946;2023-07-30T02:02:16;26.80;67.80
56172;DHT22;42052;41.634;-0.946;2023-07-30T02:04:41;26.80;67.50
56172;DHT22;42052;41.634;-0.946;2023-07-30T02:07:07;26.80;67.40
56172;DHT22;42052;41.634;-0.946;2023-07-30T02:09:33;26.80;67.20
56172;DHT22;42052;41.634;-0.946;2023-07-30T02:11:59;26.80;67.00
56172;DHT22;42052;41.634;-0.946;2023-07-30T02:14:24;26.80;66.90
56172;DHT22;42052;41.634;-0.946;2023-07-30T02:16:50;26.80;66.80
56172;DHT22;42052;41.634;-0.946;2023-07-30T02:19:16;26.80;66.90
56172;DHT22;42052;41.634;-0.946;2023-07-30T02:21:42;26.80;66.90
56172;DHT22;42052;41.634;-0.946;2023-07-30T02:24:09;26.80;66.90
56172;DHT22;42052;41.634;-0.946;2023-07-30T02:26:39;26.80;66.80
56172;DHT22;42052;41.634;-0.946;2023-07-30T02:29:05;26.70;66.80
56172;DHT22;42052;41.634;-0.946;2023-07-30T02:31:32;26.80;66.90
56172;DHT22;42052;41.634;-0.946;2023-07-30T02:33:57;26.80;66.80
56172;DHT22;42052;41.634;-0.946;2023-07-30T02:36:24;26.80;66.70
56172;DHT22;42052;41.634;-0.946;2023-07-30T02:38:50;26.80;66.60
56172;DHT22;42052;41.634;-0.946;2023-07-30T02:41:16;26.70;66.60
56172;DHT22;42052;41.634;-0.946;2023-07-30T02:43:42;26.70;66.80
56172;DHT22;42052;41.634;-0.946;2023-07-30T02:46:08;26.80;66.70
56172;DHT22;42052;41.634;-0.946;2023-07-30T02:48:34;26.80;66.80
56172;DHT22;42052;41.634;-0.946;2023-07-30T02:51:00;26.70;66.70
56172;DHT22;42052;41.634;-0.946;2023-07-30T02:53:25;26.70;66.80
56172;DHT22;42052;41.634;-0.946;2023-07-30T02:55:51;26.70;66.80
56172;DHT22;42052;41.634;-0.946;2023-07-30T02:58:18;26.70;66.70
56172;DHT22;42052;41.634;-0.946;2023-07-30T03:00:43;26.70;67.00
56172;DHT22;42052;41.634;-0.946;2023-07-30T03:03:09;26.70;67.10
56172;DHT22;42052;41.634;-0.946;2023-07-30T03:05:35;26.70;67.10
56172;DHT22;42052;41.634;-0.946;2023-07-30T03:08:01;26.70;67.00
56172;DHT22;42052;41.634;-0.946;2023-07-30T03:10:26;26.70;67.00
56172;DHT22;42052;41.634;-0.946;2023-07-30T03:12:52;26.70;67.00
56172;DHT22;42052;41.634;-0.946;2023-07-30T03:15:19;26.70;67.00
56172;DHT22;42052;41.634;-0.946;2023-07-30T03:17:44;26.70;67.10
56172;DHT22;42052;41.634;-0.946;2023-07-30T03:20:10;26.70;67.00
56172;DHT22;42052;41.634;-0.946;2023-07-30T03:22:36;26.70;67.00
56172;DHT22;42052;41.634;-0.946;2023-07-30T03:25:02;26.70;67.10
56172;DHT22;42052;41.634;-0.946;2023-07-30T03:27:28;26.70;67.00
56172;DHT22;42052;41.634;-0.946;2023-07-30T03:29:54;26.70;67.20
56172;DHT22;42052;41.634;-0.946;2023-07-30T03:32:29;26.70;67.10
56172;DHT22;42052;41.634;-0.946;2023-07-30T03:34:54;26.70;67.20
56172;DHT22;42052;41.634;-0.946;2023-07-30T03:37:20;26.70;67.20
56172;DHT22;42052;41.634;-0.946;2023-07-30T03:39:46;26.70;67.20
56172;DHT22;42052;41.634;-0.946;2023-07-30T03:42:12;26.70;67.20
56172;DHT22;42052;41.634;-0.946;2023-07-30T03:44:37;26.60;67.20
56172;DHT22;42052;41.634;-0.946;2023-07-30T03:47:03;26.70;67.20
56172;DHT22;42052;41.634;-0.946;2023-07-30T03:49:29;26.70;67.10
56172;DHT22;42052;41.634;-0.946;2023-07-30T03:51:55;26.70;67.00
56172;DHT22;42052;41.634;-0.946;2023-07-30T03:54:20;26.70;67.10
56172;DHT22;42052;41.634;-0.946;2023-07-30T03:56:46;26.70;67.00
56172;DHT22;42052;41.634;-0.946;2023-07-30T03:59:12;26.70;67.50
56172;DHT22;42052;41.634;-0.946;2023-07-30T04:01:37;26.70;67.00
56172;DHT22;42052;41.634;-0.946;2023-07-30T04:04:03;26.70;66.90
56172;DHT22;42052;41.634;-0.946;2023-07-30T04:06:29;26.70;67.00
56172;DHT22;42052;41.634;-0.946;2023-07-30T04:08:55;26.70;67.00
56172;DHT22;42052;41.634;-0.946;2023-07-30T04:11:21;26.70;67.70
56172;DHT22;42052;41.634;-0.946;2023-07-30T04:13:46;26.60;66.90
56172;DHT22;42052;41.634;-0.946;2023-07-30T04:16:12;26.70;67.00
56172;DHT22;42052;41.634;-0.946;2023-07-30T04:18:38;26.70;67.00
56172;DHT22;42052;41.634;-0.946;2023-07-30T04:21:04;26.70;67.00
56172;DHT22;42052;41.634;-0.946;2023-07-30T04:23:29;26.60;67.00
56172;DHT22;42052;41.634;-0.946;2023-07-30T04:25:55;26.60;67.00
56172;DHT22;42052;41.634;-0.946;2023-07-30T04:28:21;26.60;67.00
56172;DHT22;42052;41.634;-0.946;2023-07-30T04:30:47;26.70;67.10
56172;DHT22;42052;41.634;-0.946;2023-07-30T04:33:13;26.70;67.10
56172;DHT22;42052;41.634;-0.946;2023-07-30T04:35:40;26.70;67.10
56172;DHT22;42052;41.634;-0.946;2023-07-30T04:38:06;26.60;67.00
56172;DHT22;42052;41.634;-0.946;2023-07-30T04:40:32;26.60;66.90
56172;DHT22;42052;41.634;-0.946;2023-07-30T04:42:57;26.70;66.90
56172;DHT22;42052;41.634;-0.946;2023-07-30T04:45:23;26.60;67.00
56172;DHT22;42052;41.634;-0.946;2023-07-30T04:47:49;26.60;66.90
56172;DHT22;42052;41.634;-0.946;2023-07-30T04:50:15;26.60;66.90
56172;DHT22;42052;41.634;-0.946;2023-07-30T04:52:40;26.60;67.00
56172;DHT22;42052;41.634;-0.946;2023-07-30T04:55:07;26.60;67.00
56172;DHT22;42052;41.634;-0.946;2023-07-30T04:57:32;26.60;66.90
56172;DHT22;42052;41.634;-0.946;2023-07-30T04:59:58;26.60;67.00
56172;DHT22;42052;41.634;-0.946;2023-07-30T05:02:24;26.60;66.90
56172;DHT22;42052;41.634;-0.946;2023-07-30T05:04:50;26.60;67.00
56172;DHT22;42052;41.634;-0.946;2023-07-30T05:07:16;26.60;67.00
56172;DHT22;42052;41.634;-0.946;2023-07-30T05:09:41;26.60;67.00
56172;DHT22;42052;41.634;-0.946;2023-07-30T05:12:07;26.60;67.00
56172;DHT22;42052;41.634;-0.946;2023-07-30T05:14:33;26.60;67.10
56172;DHT22;42052;41.634;-0.946;2023-07-30T05:16:59;26.60;67.10
56172;DHT22;42052;41.634;-0.946;2023-07-30T05:19:24;26.60;67.00
56172;DHT22;42052;41.634;-0.946;2023-07-30T05:21:50;26.60;67.20
56172;DHT22;42052;41.634;-0.946;2023-07-30T05:24:16;26.60;67.20
56172;DHT22;42052;41.634;-0.946;2023-07-30T05:26:42;26.60;67.20
56172;DHT22;42052;41.634;-0.946;2023-07-30T05:29:07;26.60;67.30
56172;DHT22;42052;41.634;-0.946;2023-07-30T05:31:33;26.60;67.30
56172;DHT22;42052;41.634;-0.946;2023-07-30T05:33:59;26.60;67.40
56172;DHT22;42052;41.634;-0.946;2023-07-30T05:36:25;26.50;67.20
56172;DHT22;42052;41.634;-0.946;2023-07-30T05:38:51;26.60;67.30
56172;DHT22;42052;41.634;-0.946;2023-07-30T05:41:17;26.60;67.20
56172;DHT22;42052;41.634;-0.946;2023-07-30T05:43:42;26.50;67.20
56172;DHT22;42052;41.634;-0.946;2023-07-30T05:46:08;26.60;67.30
56172;DHT22;42052;41.634;-0.946;2023-07-30T05:48:34;26.50;67.20
56172;DHT22;42052;41.634;-0.946;2023-07-30T05:51:00;26.50;67.20
56172;DHT22;42052;41.634;-0.946;2023-07-30T05:53:26;26.50;67.30
56172;DHT22;42052;41.634;-0.946;2023-07-30T05:55:51;26.50;67.20
56172;DHT22;42052;41.634;-0.946;2023-07-30T05:58:17;26.50;67.30
56172;DHT22;42052;41.634;-0.946;2023-07-30T06:00:43;26.50;67.30
56172;DHT22;42052;41.634;-0.946;2023-07-30T06:03:09;26.50;67.20
56172;DHT22;42052;41.634;-0.946;2023-07-30T06:05:42;26.50;67.20
56172;DHT22;42052;41.634;-0.946;2023-07-30T06:08:08;26.50;67.20
56172;DHT22;42052;41.634;-0.946;2023-07-30T06:10:37;26.50;67.20
56172;DHT22;42052;41.634;-0.946;2023-07-30T06:13:04;26.50;67.10
56172;DHT22;42052;41.634;-0.946;2023-07-30T06:15:31;26.50;67.20
56172;DHT22;42052;41.634;-0.946;2023-07-30T06:17:57;26.50;67.10
56172;DHT22;42052;41.634;-0.946;2023-07-30T06:20:23;26.50;67.00
56172;DHT22;42052;41.634;-0.946;2023-07-30T06:22:49;26.40;67.00
56172;DHT22;42052;41.634;-0.946;2023-07-30T06:25:15;26.40;66.80
56172;DHT22;42052;41.634;-0.946;2023-07-30T06:27:40;26.40;67.00
56172;DHT22;42052;41.634;-0.946;2023-07-30T06:30:10;26.40;66.90
56172;DHT22;42052;41.634;-0.946;2023-07-30T06:32:36;26.40;66.90
56172;DHT22;42052;41.634;-0.946;2023-07-30T06:35:02;26.40;66.80
56172;DHT22;42052;41.634;-0.946;2023-07-30T06:37:28;26.40;66.80
56172;DHT22;42052;41.634;-0.946;2023-07-30T06:39:54;26.40;66.90
56172;DHT22;42052;41.634;-0.946;2023-07-30T06:42:20;26.40;66.80
56172;DHT22;42052;41.634;-0.946;2023-07-30T06:44:46;26.40;66.80
56172;DHT22;42052;41.634;-0.946;2023-07-30T06:47:12;26.40;66.70
56172;DHT22;42052;41.634;-0.946;2023-07-30T06:49:38;26.40;66.80
56172;DHT22;42052;41.634;-0.946;2023-07-30T06:52:04;26.40;66.70
56172;DHT22;42052;41.634;-0.946;2023-07-30T06:54:29;26.40;66.70
56172;DHT22;42052;41.634;-0.946;2023-07-30T06:56:56;26.40;66.80
56172;DHT22;42052;41.634;-0.946;2023-07-30T06:59:21;26.40;66.70
56172;DHT22;42052;41.634;-0.946;2023-07-30T07:01:47;26.40;66.70
56172;DHT22;42052;41.634;-0.946;2023-07-30T07:04:14;26.40;66.80
56172;DHT22;42052;41.634;-0.946;2023-07-30T07:06:40;26.40;66.80
56172;DHT22;42052;41.634;-0.946;2023-07-30T07:09:06;26.40;66.70
56172;DHT22;42052;41.634;-0.946;2023-07-30T07:11:32;26.40;66.70
56172;DHT22;42052;41.634;-0.946;2023-07-30T07:13:57;26.40;66.60
56172;DHT22;42052;41.634;-0.946;2023-07-30T07:16:23;26.40;66.60
56172;DHT22;42052;41.634;-0.946;2023-07-30T07:18:49;26.40;66.80
56172;DHT22;42052;41.634;-0.946;2023-07-30T07:21:15;26.40;66.70
56172;DHT22;42052;41.634;-0.946;2023-07-30T07:23:40;26.40;66.70
56172;DHT22;42052;41.634;-0.946;2023-07-30T07:26:06;26.40;66.70
56172;DHT22;42052;41.634;-0.946;2023-07-30T07:28:32;26.40;66.70
56172;DHT22;42052;41.634;-0.946;2023-07-30T07:30:58;26.40;66.60
56172;DHT22;42052;41.634;-0.946;2023-07-30T07:33:24;26.50;66.60
56172;DHT22;42052;41.634;-0.946;2023-07-30T07:35:50;26.50;66.50
56172;DHT22;42052;41.634;-0.946;2023-07-30T07:38:15;26.40;66.50
56172;DHT22;42052;41.634;-0.946;2023-07-30T07:40:43;26.50;66.60
56172;DHT22;42052;41.634;-0.946;2023-07-30T07:43:09;26.50;66.40
56172;DHT22;42052;41.634;-0.946;2023-07-30T07:45:35;26.50;66.50
56172;DHT22;42052;41.634;-0.946;2023-07-30T07:48:01;26.50;66.50
56172;DHT22;42052;41.634;-0.946;2023-07-30T07:50:26;26.50;66.40
56172;DHT22;42052;41.634;-0.946;2023-07-30T07:52:52;26.50;66.40
56172;DHT22;42052;41.634;-0.946;2023-07-30T07:55:18;26.40;66.30
56172;DHT22;42052;41.634;-0.946;2023-07-30T07:57:47;26.40;66.40
56172;DHT22;42052;41.634;-0.946;2023-07-30T08:00:12;26.50;66.80
56172;DHT22;42052;41.634;-0.946;2023-07-30T08:02:38;26.50;66.60
56172;DHT22;42052;41.634;-0.946;2023-07-30T08:05:04;26.50;66.50
56172;DHT22;42052;41.634;-0.946;2023-07-30T08:07:30;26.50;66.60
56172;DHT22;42052;41.634;-0.946;2023-07-30T08:09:56;26.50;66.60
56172;DHT22;42052;41.634;-0.946;2023-07-30T08:12:21;26.50;66.40
56172;DHT22;42052;41.634;-0.946;2023-07-30T08:14:47;26.50;66.30
56172;DHT22;42052;41.634;-0.946;2023-07-30T08:17:13;26.50;66.20
56172;DHT22;42052;41.634;-0.946;2023-07-30T08:19:38;26.50;66.30
56172;DHT22;42052;41.634;-0.946;2023-07-30T08:22:04;26.50;66.20
56172;DHT22;42052;41.634;-0.946;2023-07-30T08:24:30;26.50;66.40
56172;DHT22;42052;41.634;-0.946;2023-07-30T08:26:56;26.50;66.20
56172;DHT22;42052;41.634;-0.946;2023-07-30T08:29:21;26.50;66.20
56172;DHT22;42052;41.634;-0.946;2023-07-30T08:31:47;26.60;66.20
56172;DHT22;42052;41.634;-0.946;2023-07-30T08:34:13;26.50;66.10
56172;DHT22;42052;41.634;-0.946;2023-07-30T08:36:39;26.60;66.30
56172;DHT22;42052;41.634;-0.946;2023-07-30T08:39:05;26.60;66.20
56172;DHT22;42052;41.634;-0.946;2023-07-30T08:41:31;26.60;66.20
56172;DHT22;42052;41.634;-0.946;2023-07-30T08:43:57;26.60;66.20
56172;DHT22;42052;41.634;-0.946;2023-07-30T08:46:23;26.60;66.20
56172;DHT22;42052;41.634;-0.946;2023-07-30T08:48:49;26.60;66.10
56172;DHT22;42052;41.634;-0.946;2023-07-30T08:51:15;26.60;66.20
56172;DHT22;42052;41.634;-0.946;2023-07-30T08:53:42;26.60;66.20
56172;DHT22;42052;41.634;-0.946;2023-07-30T08:56:08;26.60;66.30
56172;DHT22;42052;41.634;-0.946;2023-07-30T08:58:35;26.60;66.20
56172;DHT22;42052;41.634;-0.946;2023-07-30T09:01:08;26.60;66.20
56172;DHT22;42052;41.634;-0.946;2023-07-30T09:03:40;26.60;66.20
56172;DHT22;42052;41.634;-0.946;2023-07-30T09:06:09;26.60;66.30
56172;DHT22;42052;41.634;-0.946;2023-07-30T09:08:35;26.70;66.30
56172;DHT22;42052;41.634;-0.946;2023-07-30T09:11:11;26.70;66.30
56172;DHT22;42052;41.634;-0.946;2023-07-30T09:13:38;26.60;66.40
56172;DHT22;42052;41.634;-0.946;2023-07-30T09:16:11;26.70;66.50
56172;DHT22;42052;41.634;-0.946;2023-07-30T09:18:40;26.70;66.70
56172;DHT22;42052;41.634;-0.946;2023-07-30T09:21:07;26.70;66.60
56172;DHT22;42052;41.634;-0.946;2023-07-30T09:23:42;26.70;66.80
56172;DHT22;42052;41.634;-0.946;2023-07-30T09:26:08;26.80;66.80
56172;DHT22;42052;41.634;-0.946;2023-07-30T09:28:34;26.80;66.90
56172;DHT22;42052;41.634;-0.946;2023-07-30T09:31:09;26.80;66.90
56172;DHT22;42052;41.634;-0.946;2023-07-30T09:33:39;26.80;66.80
56172;DHT22;42052;41.634;-0.946;2023-07-30T09:36:07;26.80;66.90
56172;DHT22;42052;41.634;-0.946;2023-07-30T09:38:42;26.80;66.80
56172;DHT22;42052;41.634;-0.946;2023-07-30T09:41:08;26.80;66.80
56172;DHT22;42052;41.634;-0.946;2023-07-30T09:43:36;26.80;66.90
56172;DHT22;42052;41.634;-0.946;2023-07-30T09:46:03;26.90;66.80
56172;DHT22;42052;41.634;-0.946;2023-07-30T09:48:31;26.90;66.90
56172;DHT22;42052;41.634;-0.946;2023-07-30T09:51:02;26.80;66.90
56172;DHT22;42052;41.634;-0.946;2023-07-30T09:53:32;26.80;66.90
56172;DHT22;42052;41.634;-0.946;2023-07-30T09:56:04;26.80;66.90
56172;DHT22;42052;41.634;-0.946;2023-07-30T09:58:31;26.90;66.90
56172;DHT22;42052;41.634;-0.946;2023-07-30T10:01:01;26.90;67.10
56172;DHT22;42052;41.634;-0.946;2023-07-30T10:03:32;26.90;67.70
56172;DHT22;42052;41.634;-0.946;2023-07-30T10:06:03;26.90;67.10
56172;DHT22;42052;41.634;-0.946;2023-07-30T10:08:34;26.90;67.00
56172;DHT22;42052;41.634;-0.946;2023-07-30T10:11:02;27.00;67.60
56172;DHT22;42052;41.634;-0.946;2023-07-30T10:13:29;27.00;66.90
56172;DHT22;42052;41.634;-0.946;2023-07-30T10:15:56;27.00;66.90
56172;DHT22;42052;41.634;-0.946;2023-07-30T10:18:47;27.00;66.90
56172;DHT22;42052;41.634;-0.946;2023-07-30T10:21:23;27.00;66.90
56172;DHT22;42052;41.634;-0.946;2023-07-30T10:24:02;27.00;66.80
56172;DHT22;42052;41.634;-0.946;2023-07-30T10:26:33;27.00;66.90
56172;DHT22;42052;41.634;-0.946;2023-07-30T10:31:54;27.00;67.00
56172;DHT22;42052;41.634;-0.946;2023-07-30T10:34:26;27.00;67.00
56172;DHT22;42052;41.634;-0.946;2023-07-30T10:37:00;26.90;66.70
56172;DHT22;42052;41.634;-0.946;2023-07-30T10:39:27;27.00;66.90
56172;DHT22;42052;41.634;-0.946;2023-07-30T10:41:55;27.00;66.80
56172;DHT22;42052;41.634;-0.946;2023-07-30T10:44:33;27.00;66.80
56172;DHT22;42052;41.634;-0.946;2023-07-30T10:47:02;27.00;66.80
56172;DHT22;42052;41.634;-0.946;2023-07-30T10:49:29;27.00;67.00
56172;DHT22;42052;41.634;-0.946;2023-07-30T10:51:56;27.00;66.90
56172;DHT22;42052;41.634;-0.946;2023-07-30T10:54:36;27.00;66.90
56172;DHT22;42052;41.634;-0.946;2023-07-30T10:57:03;27.00;66.70
56172;DHT22;42052;41.634;-0.946;2023-07-30T10:59:35;27.00;66.60
56172;DHT22;42052;41.634;-0.946;2023-07-30T11:02:02;27.00;66.70
56172;DHT22;42052;41.634;-0.946;2023-07-30T11:04:28;27.00;66.70
56172;DHT22;42052;41.634;-0.946;2023-07-30T11:06:54;27.10;66.80
56172;DHT22;42052;41.634;-0.946;2023-07-30T11:11:49;27.00;66.60
56172;DHT22;42052;41.634;-0.946;2023-07-30T11:14:19;27.00;66.60
56172;DHT22;42052;41.634;-0.946;2023-07-30T11:19:17;27.10;66.60
56172;DHT22;42052;41.634;-0.946;2023-07-30T11:21:50;27.10;66.70
56172;DHT22;42052;41.634;-0.946;2023-07-30T11:24:16;27.10;66.70
56172;DHT22;42052;41.634;-0.946;2023-07-30T11:26:43;27.10;66.90
56172;DHT22;42052;41.634;-0.946;2023-07-30T11:29:18;27.10;67.00
56172;DHT22;42052;41.634;-0.946;2023-07-30T11:31:46;27.10;67.10
56172;DHT22;42052;41.634;-0.946;2023-07-30T11:34:15;27.10;67.40
56172;DHT22;42052;41.634;-0.946;2023-07-30T11:36:42;27.10;67.40
56172;DHT22;42052;41.634;-0.946;2023-07-30T11:39:08;27.10;67.60
56172;DHT22;42052;41.634;-0.946;2023-07-30T11:41:35;27.10;67.20
56172;DHT22;42052;41.634;-0.946;2023-07-30T11:44:02;27.10;67.00
56172;DHT22;42052;41.634;-0.946;2023-07-30T11:46:28;27.10;67.30
56172;DHT22;42052;41.634;-0.946;2023-07-30T11:49:13;27.10;67.90
56172;DHT22;42052;41.634;-0.946;2023-07-30T11:51:39;27.10;68.00
56172;DHT22;42052;41.634;-0.946;2023-07-30T11:54:05;27.10;68.00
56172;DHT22;42052;41.634;-0.946;2023-07-30T11:56:32;27.10;68.10
56172;DHT22;42052;41.634;-0.946;2023-07-30T11:59:05;27.10;68.30
56172;DHT22;42052;41.634;-0.946;2023-07-30T12:01:32;27.10;68.00
56172;DHT22;42052;41.634;-0.946;2023-07-30T12:04:06;27.10;68.20
56172;DHT22;42052;41.634;-0.946;2023-07-30T12:06:49;27.20;68.40
56172;DHT22;42052;41.634;-0.946;2023-07-30T12:09:19;27.10;69.00
56172;DHT22;42052;41.634;-0.946;2023-07-30T12:11:52;27.20;70.40
56172;DHT22;42052;41.634;-0.946;2023-07-30T12:14:24;27.20;72.40
56172;DHT22;42052;41.634;-0.946;2023-07-30T12:17:03;27.20;78.70
56172;DHT22;42052;41.634;-0.946;2023-07-30T12:19:29;27.20;78.10
56172;DHT22;42052;41.634;-0.946;2023-07-30T12:21:55;27.20;75.90
56172;DHT22;42052;41.634;-0.946;2023-07-30T12:24:20;27.20;76.50
56172;DHT22;42052;41.634;-0.946;2023-07-30T12:26:51;27.20;74.10
56172;DHT22;42052;41.634;-0.946;2023-07-30T12:29:17;27.20;73.10
56172;DHT22;42052;41.634;-0.946;2023-07-30T12:31:42;27.20;72.80
56172;DHT22;42052;41.634;-0.946;2023-07-30T12:34:09;27.20;72.10
56172;DHT22;42052;41.634;-0.946;2023-07-30T12:36:34;27.20;69.10
56172;DHT22;42052;41.634;-0.946;2023-07-30T12:39:03;27.20;68.00
56172;DHT22;42052;41.634;-0.946;2023-07-30T12:41:29;27.20;67.20
56172;DHT22;42052;41.634;-0.946;2023-07-30T12:43:56;27.20;67.10
56172;DHT22;42052;41.634;-0.946;2023-07-30T12:46:22;27.30;66.90
56172;DHT22;42052;41.634;-0.946;2023-07-30T12:48:48;27.20;66.20
56172;DHT22;42052;41.634;-0.946;2023-07-30T12:51:14;27.20;65.30
56172;DHT22;42052;41.634;-0.946;2023-07-30T12:53:40;27.30;65.20
56172;DHT22;42052;41.634;-0.946;2023-07-30T12:56:06;27.20;65.00
56172;DHT22;42052;41.634;-0.946;2023-07-30T12:58:32;27.30;64.80
56172;DHT22;42052;41.634;-0.946;2023-07-30T13:01:00;27.30;64.90
56172;DHT22;42052;41.634;-0.946;2023-07-30T13:03:26;27.30;64.80
56172;DHT22;42052;41.634;-0.946;2023-07-30T13:05:51;27.30;65.10
56172;DHT22;42052;41.634;-0.946;2023-07-30T13:08:17;27.30;65.10
56172;DHT22;42052;41.634;-0.946;2023-07-30T13:10:43;27.30;64.80
56172;DHT22;42052;41.634;-0.946;2023-07-30T13:13:09;27.30;64.70
56172;DHT22;42052;41.634;-0.946;2023-07-30T13:15:34;27.30;65.00
56172;DHT22;42052;41.634;-0.946;2023-07-30T13:18:00;27.30;64.70
56172;DHT22;42052;41.634;-0.946;2023-07-30T13:20:26;27.30;65.70
56172;DHT22;42052;41.634;-0.946;2023-07-30T13:22:54;27.30;65.00
56172;DHT22;42052;41.634;-0.946;2023-07-30T13:25:20;27.40;65.20
56172;DHT22;42052;41.634;-0.946;2023-07-30T13:27:46;27.30;64.90
56172;DHT22;42052;41.634;-0.946;2023-07-30T13:30:11;27.30;64.80
56172;DHT22;42052;41.634;-0.946;2023-07-30T13:32:37;27.30;65.10
56172;DHT22;42052;41.634;-0.946;2023-07-30T13:35:03;27.30;65.20
56172;DHT22;42052;41.634;-0.946;2023-07-30T13:37:30;27.30;65.10
56172;DHT22;42052;41.634;-0.946;2023-07-30T13:39:56;27.40;65.10
56172;DHT22;42052;41.634;-0.946;2023-07-30T13:42:21;27.40;65.20
56172;DHT22;42052;41.634;-0.946;2023-07-30T13:44:47;27.40;66.20
56172;DHT22;42052;41.634;-0.946;2023-07-30T13:47:13;27.30;65.60
56172;DHT22;42052;41.634;-0.946;2023-07-30T13:49:39;27.40;65.80
56172;DHT22;42052;41.634;-0.946;2023-07-30T13:52:07;27.40;66.00
56172;DHT22;42052;41.634;-0.946;2023-07-30T13:54:33;27.40;66.20
56172;DHT22;42052;41.634;-0.946;2023-07-30T13:57:03;27.40;66.20
56172;DHT22;42052;41.634;-0.946;2023-07-30T13:59:29;27.30;66.20
56172;DHT22;42052;41.634;-0.946;2023-07-30T14:01:55;27.40;66.70
56172;DHT22;42052;41.634;-0.946;2023-07-30T14:04:21;27.40;66.90
56172;DHT22;42052;41.634;-0.946;2023-07-30T14:06:46;27.40;67.20
56172;DHT22;42052;41.634;-0.946;2023-07-30T14:09:12;27.40;67.10
56172;DHT22;42052;41.634;-0.946;2023-07-30T14:11:38;27.40;67.00
56172;DHT22;42052;41.634;-0.946;2023-07-30T14:14:06;27.40;67.30
56172;DHT22;42052;41.634;-0.946;2023-07-30T14:16:32;27.40;67.60
56172;DHT22;42052;41.634;-0.946;2023-07-30T14:18:58;27.40;67.70
56172;DHT22;42052;41.634;-0.946;2023-07-30T14:21:24;27.40;67.80
56172;DHT22;42052;41.634;-0.946;2023-07-30T14:23:49;27.40;67.70
56172;DHT22;42052;41.634;-0.946;2023-07-30T14:26:15;27.40;67.60
56172;DHT22;42052;41.634;-0.946;2023-07-30T14:28:41;27.40;67.60
56172;DHT22;42052;41.634;-0.946;2023-07-30T14:31:07;27.40;67.80
56172;DHT22;42052;41.634;-0.946;2023-07-30T14:33:32;27.40;67.80
56172;DHT22;42052;41.634;-0.946;2023-07-30T14:36:01;27.40;67.80
56172;DHT22;42052;41.634;-0.946;2023-07-30T14:38:28;27.40;67.70
56172;DHT22;42052;41.634;-0.946;2023-07-30T14:40:54;27.40;65.60
56172;DHT22;42052;41.634;-0.946;2023-07-30T14:43:20;27.40;64.50
56172;DHT22;42052;41.634;-0.946;2023-07-30T14:45:46;27.40;64.10
56172;DHT22;42052;41.634;-0.946;2023-07-30T14:48:14;27.40;63.50
56172;DHT22;42052;41.634;-0.946;2023-07-30T14:50:39;27.40;63.20
56172;DHT22;42052;41.634;-0.946;2023-07-30T14:53:05;27.40;63.40
56172;DHT22;42052;41.634;-0.946;2023-07-30T14:55:31;27.40;63.20
56172;DHT22;42052;41.634;-0.946;2023-07-30T14:57:57;27.40;63.10
56172;DHT22;42052;41.634;-0.946;2023-07-30T15:00:23;27.40;63.10
56172;DHT22;42052;41.634;-0.946;2023-07-30T15:02:48;27.40;63.10
56172;DHT22;42052;41.634;-0.946;2023-07-30T15:05:15;27.40;63.10
56172;DHT22;42052;41.634;-0.946;2023-07-30T15:07:41;27.40;63.20
56172;DHT22;42052;41.634;-0.946;2023-07-30T15:10:07;27.40;63.50
56172;DHT22;42052;41.634;-0.946;2023-07-30T15:12:35;27.50;64.90
56172;DHT22;42052;41.634;-0.946;2023-07-30T15:15:01;27.50;64.20
56172;DHT22;42052;41.634;-0.946;2023-07-30T15:17:26;27.50;64.00
56172;DHT22;42052;41.634;-0.946;2023-07-30T15:19:53;27.40;62.20
56172;DHT22;42052;41.634;-0.946;2023-07-30T15:22:20;27.40;62.00